Lakemont, New York
Current Conditions -  °F | °C
As of 5:53 PM on Wednesday 22 Oct 2014 (Local Time) from KPEO Reporting Station
Overcast Overcast  
Wind Chill: 44°   Ceiling: 1300
Heat Index: 48°   Visibility: 10mi
Dew Point: 42°   Wind: 9mph
Humidity: 80%   Direction: 340°NNW
Pressure: 30.14"   Gusts: 22mph
Location:  42.52°N, 76.93°W
Report Text: KPEO 222153Z AUTO 34008G19KT 320V020 10SM OVC013 09/06 A3014 RMK AO2 SLP212 T00890056
Loading
Personal Weather Stations






























Interactive Weather Map
Tropical Storm Tracking
New forecast layout! Learn more

10-Day Weather Forecast

Advertisements
Track Severe Weather on mobile